sensor_id;sensor_type;location;lat;lon;timestamp;temperature;humidity
12041;DHT22;6081;48.734;9.108;2022-07-11T00:07:23;14.60;99.90
12041;DHT22;6081;48.734;9.108;2022-07-11T00:17:26;14.60;99.90
12041;DHT22;6081;48.734;9.108;2022-07-11T00:27:28;14.40;99.90
12041;DHT22;6081;48.734;9.108;2022-07-11T00:37:31;14.50;99.90
12041;DHT22;6081;48.734;9.108;2022-07-11T00:47:33;14.50;99.90
12041;DHT22;6081;48.734;9.108;2022-07-11T00:57:37;14.50;99.90
12041;DHT22;6081;48.734;9.108;2022-07-11T01:07:39;14.60;99.90
12041;DHT22;6081;48.734;9.108;2022-07-11T01:17:42;14.40;99.90
12041;DHT22;6081;48.734;9.108;2022-07-11T01:27:46;14.40;99.90
12041;DHT22;6081;48.734;9.108;2022-07-11T01:37:48;14.30;99.90
12041;DHT22;6081;48.734;9.108;2022-07-11T01:47:51;14.20;99.90
12041;DHT22;6081;48.734;9.108;2022-07-11T01:57:54;14.10;99.90
12041;DHT22;6081;48.734;9.108;2022-07-11T02:07:58;14.30;99.90
12041;DHT22;6081;48.734;9.108;2022-07-11T02:18:15;14.20;99.90
12041;DHT22;6081;48.734;9.108;2022-07-11T02:28:18;14.20;99.90
12041;DHT22;6081;48.734;9.108;2022-07-11T02:38:20;14.10;99.90
12041;DHT22;6081;48.734;9.108;2022-07-11T02:48:23;14.10;99.90
12041;DHT22;6081;48.734;9.108;2022-07-11T02:58:25;14.20;99.90
12041;DHT22;6081;48.734;9.108;2022-07-11T03:08:28;14.30;99.90
12041;DHT22;6081;48.734;9.108;2022-07-11T03:18:30;14.50;99.90
12041;DHT22;6081;48.734;9.108;2022-07-11T03:28:33;14.60;99.90
12041;DHT22;6081;48.734;9.108;2022-07-11T03:38:35;14.50;99.90
12041;DHT22;6081;48.734;9.108;2022-07-11T03:48:38;14.50;99.90
12041;DHT22;6081;48.734;9.108;2022-07-11T03:58:40;14.60;99.90
12041;DHT22;6081;48.734;9.108;2022-07-11T04:08:43;14.90;99.90
12041;DHT22;6081;48.734;9.108;2022-07-11T04:18:45;15.00;99.90
12041;DHT22;6081;48.734;9.108;2022-07-11T04:28:48;14.80;99.90
12041;DHT22;6081;48.734;9.108;2022-07-11T04:38:50;14.80;99.90
12041;DHT22;6081;48.734;9.108;2022-07-11T04:48:53;14.90;99.90
12041;DHT22;6081;48.734;9.108;2022-07-11T04:58:55;15.10;99.90
12041;DHT22;6081;48.734;9.108;2022-07-11T05:08:58;15.30;99.90
12041;DHT22;6081;48.734;9.108;2022-07-11T05:19:00;15.60;99.90
12041;DHT22;6081;48.734;9.108;2022-07-11T05:29:03;16.00;99.90
12041;DHT22;6081;48.734;9.108;2022-07-11T05:39:05;16.10;99.90
12041;DHT22;6081;48.734;9.108;2022-07-11T05:49:08;16.80;99.90
12041;DHT22;6081;48.734;9.108;2022-07-11T05:59:10;17.20;99.90
12041;DHT22;6081;48.734;9.108;2022-07-11T06:09:14;17.60;99.90
12041;DHT22;6081;48.734;9.108;2022-07-11T06:19:16;18.00;99.90
12041;DHT22;6081;48.734;9.108;2022-07-11T06:29:19;18.20;99.90
12041;DHT22;6081;48.734;9.108;2022-07-11T06:39:21;18.00;99.90
12041;DHT22;6081;48.734;9.108;2022-07-11T06:49:24;17.90;99.90
12041;DHT22;6081;48.734;9.108;2022-07-11T06:59:26;18.00;99.90
12041;DHT22;6081;48.734;9.108;2022-07-11T07:09:29;18.80;99.90
12041;DHT22;6081;48.734;9.108;2022-07-11T07:19:31;18.70;99.90
12041;DHT22;6081;48.734;9.108;2022-07-11T07:29:34;19.40;99.90
12041;DHT22;6081;48.734;9.108;2022-07-11T07:39:36;20.30;99.90
12041;DHT22;6081;48.734;9.108;2022-07-11T07:49:39;22.10;99.90
12041;DHT22;6081;48.734;9.108;2022-07-11T07:59:41;23.70;99.90
12041;DHT22;6081;48.734;9.108;2022-07-11T08:09:44;25.80;99.90
12041;DHT22;6081;48.734;9.108;2022-07-11T08:19:46;26.50;99.90
12041;DHT22;6081;48.734;9.108;2022-07-11T08:29:49;26.50;99.90
12041;DHT22;6081;48.734;9.108;2022-07-11T08:39:51;25.40;99.90
12041;DHT22;6081;48.734;9.108;2022-07-11T08:49:58;25.80;99.90
12041;DHT22;6081;48.734;9.108;2022-07-11T08:59:59;27.10;98.30
12041;DHT22;6081;48.734;9.108;2022-07-11T09:10:04;26.50;98.70
12041;DHT22;6081;48.734;9.108;2022-07-11T09:20:07;25.10;99.90
12041;DHT22;6081;48.734;9.108;2022-07-11T09:30:23;25.40;95.70
12041;DHT22;6081;48.734;9.108;2022-07-11T09:40:25;24.50;98.70
12041;DHT22;6081;48.734;9.108;2022-07-11T09:50:30;24.40;97.90
12041;DHT22;6081;48.734;9.108;2022-07-11T10:00:33;24.20;98.60
12041;DHT22;6081;48.734;9.108;2022-07-11T10:10:37;23.90;98.80
12041;DHT22;6081;48.734;9.108;2022-07-11T10:20:42;23.10;99.30
12041;DHT22;6081;48.734;9.108;2022-07-11T10:30:49;22.00;99.90
12041;DHT22;6081;48.734;9.108;2022-07-11T10:40:52;22.50;99.90
12041;DHT22;6081;48.734;9.108;2022-07-11T10:51:10;23.30;99.90
12041;DHT22;6081;48.734;9.108;2022-07-11T11:01:14;23.90;99.90
12041;DHT22;6081;48.734;9.108;2022-07-11T11:11:36;24.20;99.90
12041;DHT22;6081;48.734;9.108;2022-07-11T11:21:59;23.70;98.30
12041;DHT22;6081;48.734;9.108;2022-07-11T11:32:04;23.30;99.50
12041;DHT22;6081;48.734;9.108;2022-07-11T11:42:08;23.20;99.90
12041;DHT22;6081;48.734;9.108;2022-07-11T11:52:11;24.20;99.90
12041;DHT22;6081;48.734;9.108;2022-07-11T12:02:21;25.00;97.80
12041;DHT22;6081;48.734;9.108;2022-07-11T12:12:26;24.40;98.60
12041;DHT22;6081;48.734;9.108;2022-07-11T12:22:48;24.10;98.40
12041;DHT22;6081;48.734;9.108;2022-07-11T12:33:04;23.20;99.90
12041;DHT22;6081;48.734;9.108;2022-07-11T12:43:05;23.30;99.60
12041;DHT22;6081;48.734;9.108;2022-07-11T12:53:30;24.30;99.90
12041;DHT22;6081;48.734;9.108;2022-07-11T13:03:33;24.90;98.80
12041;DHT22;6081;48.734;9.108;2022-07-11T13:13:37;23.70;99.10
12041;DHT22;6081;48.734;9.108;2022-07-11T13:23:39;23.60;99.90
12041;DHT22;6081;48.734;9.108;2022-07-11T13:33:43;23.70;99.90
12041;DHT22;6081;48.734;9.108;2022-07-11T13:43:45;23.50;99.90
12041;DHT22;6081;48.734;9.108;2022-07-11T13:53:48;24.00;99.90
12041;DHT22;6081;48.734;9.108;2022-07-11T14:03:50;23.90;99.90
12041;DHT22;6081;48.734;9.108;2022-07-11T14:13:53;23.30;99.90
12041;DHT22;6081;48.734;9.108;2022-07-11T14:23:55;23.60;99.90
12041;DHT22;6081;48.734;9.108;2022-07-11T14:33:59;23.90;99.80
12041;DHT22;6081;48.734;9.108;2022-07-11T14:44:01;23.80;99.90
12041;DHT22;6081;48.734;9.108;2022-07-11T14:54:05;23.00;99.90
12041;DHT22;6081;48.734;9.108;2022-07-11T15:04:07;23.10;99.90
12041;DHT22;6081;48.734;9.108;2022-07-11T15:14:11;22.80;99.90
12041;DHT22;6081;48.734;9.108;2022-07-11T15:24:14;22.80;99.90
12041;DHT22;6081;48.734;9.108;2022-07-11T15:34:17;23.50;99.90
12041;DHT22;6081;48.734;9.108;2022-07-11T15:44:19;24.00;99.90
12041;DHT22;6081;48.734;9.108;2022-07-11T15:54:23;23.90;99.90
12041;DHT22;6081;48.734;9.108;2022-07-11T16:04:25;23.90;99.90
12041;DHT22;6081;48.734;9.108;2022-07-11T16:14:28;24.00;99.90
12041;DHT22;6081;48.734;9.108;2022-07-11T16:24:30;24.10;99.90
12041;DHT22;6081;48.734;9.108;2022-07-11T16:34:34;23.40;99.90
12041;DHT22;6081;48.734;9.108;2022-07-11T16:44:35;22.90;99.90
12041;DHT22;6081;48.734;9.108;2022-07-11T16:54:39;22.60;99.90
12041;DHT22;6081;48.734;9.108;2022-07-11T17:04:40;22.30;99.90
12041;DHT22;6081;48.734;9.108;2022-07-11T17:14:44;22.30;99.90
12041;DHT22;6081;48.734;9.108;2022-07-11T17:24:45;22.60;99.90
12041;DHT22;6081;48.734;9.108;2022-07-11T17:34:49;22.40;99.90
12041;DHT22;6081;48.734;9.108;2022-07-11T17:44:51;22.20;99.90
12041;DHT22;6081;48.734;9.108;2022-07-11T17:54:55;21.90;99.90
12041;DHT22;6081;48.734;9.108;2022-07-11T18:04:56;22.20;99.90
12041;DHT22;6081;48.734;9.108;2022-07-11T18:15:00;22.20;99.90
12041;DHT22;6081;48.734;9.108;2022-07-11T18:25:03;22.20;99.90
12041;DHT22;6081;48.734;9.108;2022-07-11T18:35:07;21.90;99.90
12041;DHT22;6081;48.734;9.108;2022-07-11T18:45:09;21.70;99.90
12041;DHT22;6081;48.734;9.108;2022-07-11T18:55:12;21.30;99.90
12041;DHT22;6081;48.734;9.108;2022-07-11T19:05:14;21.10;99.90
12041;DHT22;6081;48.734;9.108;2022-07-11T19:15:17;20.90;99.90
12041;DHT22;6081;48.734;9.108;2022-07-11T19:25:19;20.60;99.90
12041;DHT22;6081;48.734;9.108;2022-07-11T19:35:23;20.50;99.90
12041;DHT22;6081;48.734;9.108;2022-07-11T19:45:25;20.00;99.90
12041;DHT22;6081;48.734;9.108;2022-07-11T19:55:28;19.70;99.90
12041;DHT22;6081;48.734;9.108;2022-07-11T20:05:47;19.40;99.90
12041;DHT22;6081;48.734;9.108;2022-07-11T20:15:52;19.20;99.90
12041;DHT22;6081;48.734;9.108;2022-07-11T20:25:54;19.00;99.90
12041;DHT22;6081;48.734;9.108;2022-07-11T20:35:59;18.90;99.90
12041;DHT22;6081;48.734;9.108;2022-07-11T20:46:01;18.70;99.90
12041;DHT22;6081;48.734;9.108;2022-07-11T20:56:05;18.40;99.90
12041;DHT22;6081;48.734;9.108;2022-07-11T21:06:07;18.30;99.90
12041;DHT22;6081;48.734;9.108;2022-07-11T21:16:10;18.10;99.90
12041;DHT22;6081;48.734;9.108;2022-07-11T21:26:12;17.90;99.90
12041;DHT22;6081;48.734;9.108;2022-07-11T21:36:15;17.70;99.90
12041;DHT22;6081;48.734;9.108;2022-07-11T21:46:17;17.50;99.90
12041;DHT22;6081;48.734;9.108;2022-07-11T21:56:20;17.60;99.90
12041;DHT22;6081;48.734;9.108;2022-07-11T22:06:22;17.70;99.90
12041;DHT22;6081;48.734;9.108;2022-07-11T22:16:25;17.80;99.90
12041;DHT22;6081;48.734;9.108;2022-07-11T22:26:27;17.80;99.90
12041;DHT22;6081;48.734;9.108;2022-07-11T22:36:30;17.80;99.90
12041;DHT22;6081;48.734;9.108;2022-07-11T22:46:32;17.50;99.90
12041;DHT22;6081;48.734;9.108;2022-07-11T22:56:35;17.30;99.90
12041;DHT22;6081;48.734;9.108;2022-07-11T23:06:37;17.30;99.90
12041;DHT22;6081;48.734;9.108;2022-07-11T23:16:40;17.10;99.90
12041;DHT22;6081;48.734;9.108;2022-07-11T23:26:42;16.90;99.90
12041;DHT22;6081;48.734;9.108;2022-07-11T23:36:45;16.80;99.90
12041;DHT22;6081;48.734;9.108;2022-07-11T23:46:47;16.70;99.90
12041;DHT22;6081;48.734;9.108;2022-07-11T23:56:50;16.50;99.90
